Time;durP1;ratioP1;P1;durP2;ratioP2;P2;SDS_P1;SDS_P2;PMS_P1;PMS_P2;Temp;Humidity;BMP_temperature;BMP_pressure;BME280_temperature;BME280_humidity;BME280_pressure;Samples;Min_cycle;Max_cycle;Signal;HPM_P1;HPM_P2
2021/12/05 00:17:36;;;;;;;25.70;17.53;;;;;;;5.64;nan;99204.81;5115963;28;20161;-70
2021/12/05 00:20:09;;;;;;;28.03;18.00;;;;;;;5.53;nan;99202.75;5115418;28;20203;-70
2021/12/05 00:22:46;;;;;;;26.50;16.87;;;;;;;5.44;nan;99221.81;5116711;28;20676;-69
2021/12/05 00:25:16;;;;;;;27.90;18.37;;;;;;;5.75;nan;99217.41;5115567;28;20166;-69
2021/12/05 00:27:49;;;;;;;29.03;18.57;;;;;;;4.96;nan;99185.78;5115086;28;20190;-69
2021/12/05 00:33:34;;;;;;;27.40;17.60;;;;;;;5.16;nan;99219.03;5115705;28;20286;-68
2021/12/05 00:46:45;;;;;;;26.13;16.53;;;;;;;4.77;nan;99206.22;5130509;28;20205;-70
2021/12/05 00:49:55;;;;;;;28.10;17.43;;;;;;;4.95;nan;99236.97;5130725;28;20200;-69
2021/12/05 00:52:34;;;;;;;25.83;18.43;;;;;;;4.55;nan;99231.19;5128864;28;20271;-69
2021/12/05 00:55:32;;;;;;;27.17;18.37;;;;;;;4.12;nan;99250.25;5131656;28;20170;-69
2021/12/05 00:59:00;;;;;;;30.20;18.10;;;;;;;3.94;nan;99237.03;5129999;28;20177;-70
2021/12/05 01:01:38;;;;;;;27.33;17.57;;;;;;;4.35;nan;99274.50;5130330;28;20210;-70
2021/12/05 01:14:38;;;;;;;34.00;20.37;;;;;;;4.21;nan;99252.41;5115491;28;20165;-69
2021/12/05 01:17:04;;;;;;;29.60;17.57;;;;;;;3.90;nan;99274.22;5114182;28;20186;-69
2021/12/05 01:19:31;;;;;;;34.73;20.80;;;;;;;4.08;nan;99275.91;5114231;28;20231;-69
2021/12/05 01:22:02;;;;;;;31.97;20.87;;;;;;;4.22;nan;99299.84;5097768;28;20277;-69
2021/12/05 01:24:50;;;;;;;32.83;20.93;;;;;;;4.35;nan;99271.00;5113939;28;20211;-70
2021/12/05 01:27:29;;;;;;;33.47;20.47;;;;;;;4.11;nan;99286.34;5115301;28;20178;-69
2021/12/05 01:30:08;;;;;;;30.73;19.07;;;;;;;3.94;nan;99292.47;5113928;28;20216;-70
2021/12/05 01:35:19;;;;;;;40.23;21.83;;;;;;;4.03;nan;99325.47;5113787;28;20271;-69
2021/12/05 01:38:01;;;;;;;36.50;21.10;;;;;;;4.57;nan;99323.59;5098579;28;20623;-70
2021/12/05 01:40:50;;;;;;;40.23;22.23;;;;;;;4.17;nan;99327.44;5113526;28;20223;-70
2021/12/05 01:54:04;;;;;;;35.40;21.67;;;;;;;4.66;nan;99301.97;5113816;28;20253;-71
2021/12/05 01:56:53;;;;;;;42.70;22.30;;;;;;;4.03;nan;99328.09;5113851;28;20481;-69
2021/12/05 01:59:32;;;;;;;33.03;20.13;;;;;;;3.98;nan;99320.41;5114410;28;20273;-70
2021/12/05 02:08:00;;;;;;;43.43;24.40;;;;;;;3.75;nan;99345.31;5124890;28;20184;-70
2021/12/05 02:15:59;;;;;;;37.87;22.93;;;;;;;3.78;nan;99335.56;5122162;28;20165;-70
2021/12/05 02:35:00;;;;;;;38.67;22.23;;;;;;;4.21;nan;99336.91;5119581;28;20165;-70
2021/12/05 02:42:46;;;;;;;34.47;21.80;;;;;;;3.55;nan;99353.34;5116195;28;20157;-70
2021/12/05 02:45:12;;;;;;;40.10;22.37;;;;;;;4.06;nan;99357.84;5115871;28;20165;-69
2021/12/05 02:47:46;;;;;;;39.83;23.03;;;;;;;3.75;nan;99362.94;5114566;28;20193;-70
2021/12/05 02:50:12;;;;;;;45.53;23.67;;;;;;;3.99;nan;99353.81;5098201;28;20189;-69
2021/12/05 02:52:40;;;;;;;46.83;22.87;;;;;;;3.93;nan;99372.59;5096841;28;20326;-69
2021/12/05 02:55:13;;;;;;;43.03;23.00;;;;;;;4.42;nan;99377.22;5114553;28;20655;-69
2021/12/05 03:00:15;;;;;;;45.83;23.80;;;;;;;4.18;nan;99364.34;5113736;28;20375;-69
2021/12/05 03:02:43;;;;;;;46.57;22.93;;;;;;;4.24;nan;99349.97;5115863;28;20225;-71
2021/12/05 03:05:13;;;;;;;47.30;25.53;;;;;;;4.44;nan;99365.63;5117843;28;20218;-68
2021/12/05 03:07:41;;;;;;;53.07;26.03;;;;;;;3.87;nan;99369.41;5120041;28;20190;-70
2021/12/05 03:10:09;;;;;;;49.80;25.57;;;;;;;4.38;nan;99371.22;5121751;28;20247;-71
2021/12/05 03:12:35;;;;;;;62.13;27.23;;;;;;;4.48;nan;99364.56;5122683;28;20185;-70
2021/12/05 03:15:05;;;;;;;56.47;26.63;;;;;;;4.46;nan;99353.22;5105188;28;20551;-70
2021/12/05 03:17:30;;;;;;;52.80;26.83;;;;;;;4.34;nan;99374.97;5122852;28;20197;-70
2021/12/05 03:19:55;;;;;;;61.37;27.23;;;;;;;4.23;nan;99367.59;5125108;28;20189;-70
2021/12/05 03:22:21;;;;;;;62.60;28.03;;;;;;;3.89;nan;99373.69;5129066;28;20643;-69
2021/12/05 03:24:48;;;;;;;59.43;28.00;;;;;;;4.17;nan;99377.59;5127936;28;20177;-69
2021/12/05 03:27:13;;;;;;;67.90;29.20;;;;;;;4.35;nan;99368.75;5113604;28;20189;-69
2021/12/05 03:29:39;;;;;;;59.23;28.37;;;;;;;4.02;nan;99353.66;5125170;28;20198;-70
2021/12/05 03:32:04;;;;;;;64.97;29.20;;;;;;;4.18;nan;99374.91;5113283;28;20230;-70
2021/12/05 03:34:29;;;;;;;64.17;29.30;;;;;;;4.04;nan;99378.19;5114529;28;20170;-70
2021/12/05 03:36:57;;;;;;;65.23;29.63;;;;;;;4.20;nan;99380.09;5098579;28;20186;-69
2021/12/05 03:39:23;;;;;;;71.23;29.73;;;;;;;4.31;nan;99380.41;5115927;28;20170;-70
2021/12/05 03:41:52;;;;;;;64.87;29.60;;;;;;;4.02;nan;99392.41;5115518;28;20177;-70
2021/12/05 03:44:19;;;;;;;61.30;29.17;;;;;;;4.53;nan;99396.03;5115572;28;20176;-69
2021/12/05 03:46:45;;;;;;;80.40;31.23;;;;;;;4.24;nan;99384.28;5115327;28;20193;-69
2021/12/05 03:49:13;;;;;;;69.37;31.87;;;;;;;4.32;nan;99395.31;5115555;28;20173;-70
2021/12/05 03:51:44;;;;;;;73.13;33.33;;;;;;;4.26;nan;99383.28;5115095;28;20189;-70
2021/12/05 03:54:10;;;;;;;69.57;31.30;;;;;;;4.32;nan;99400.59;5115226;28;20599;-70
2021/12/05 03:56:36;;;;;;;90.30;34.93;;;;;;;4.24;nan;99386.94;5115481;28;20222;-70
2021/12/05 03:59:04;;;;;;;89.80;35.47;;;;;;;4.17;nan;99406.66;5098429;28;20546;-71
2021/12/05 04:01:29;;;;;;;84.70;35.77;;;;;;;4.28;nan;99391.97;5097699;28;20233;-70
2021/12/05 04:03:55;;;;;;;85.83;35.43;;;;;;;4.18;nan;99381.97;5114812;28;20205;-70
2021/12/05 04:06:21;;;;;;;92.63;33.97;;;;;;;4.24;nan;99400.13;5097782;28;20538;-70
2021/12/05 04:08:48;;;;;;;87.13;34.80;;;;;;;4.25;nan;99399.19;5115468;28;20173;-71
2021/12/05 04:11:19;;;;;;;83.23;34.10;;;;;;;3.96;nan;99404.13;5116171;28;20190;-71
2021/12/05 04:13:45;;;;;;;82.57;35.73;;;;;;;4.12;nan;99412.16;5115044;28;20158;-70
2021/12/05 04:16:11;;;;;;;85.63;35.07;;;;;;;3.79;nan;99401.44;5097851;28;20193;-70
2021/12/05 04:18:37;;;;;;;84.03;34.37;;;;;;;4.19;nan;99397.72;5116006;28;20173;-70
2021/12/05 04:21:03;;;;;;;78.47;34.63;;;;;;;3.78;nan;99402.38;5097380;28;20586;-69
2021/12/05 04:23:29;;;;;;;85.57;34.97;;;;;;;4.02;nan;99390.63;5114791;28;20532;-70
2021/12/05 04:25:55;;;;;;;86.77;35.17;;;;;;;3.99;nan;99417.16;5114632;28;20181;-70
2021/12/05 04:28:21;;;;;;;86.57;34.93;;;;;;;3.78;nan;99422.63;5114424;28;20204;-70
2021/12/05 04:30:47;;;;;;;92.33;36.27;;;;;;;4.47;nan;99407.78;5114344;28;20232;-70
2021/12/05 04:33:12;;;;;;;78.17;34.27;;;;;;;4.16;nan;99395.25;5114534;28;20709;-70
2021/12/05 04:35:38;;;;;;;76.37;34.27;;;;;;;3.63;nan;99387.25;5097524;28;20170;-69
2021/12/05 04:38:03;;;;;;;70.67;33.43;;;;;;;4.06;nan;99402.72;5114782;28;20165;-68
2021/12/05 04:40:29;;;;;;;65.27;31.83;;;;;;;4.27;nan;99399.97;5114503;28;20198;-68
2021/12/05 04:42:54;;;;;;;70.57;30.97;;;;;;;3.54;nan;99414.09;5097096;28;20678;-70
2021/12/05 04:45:23;;;;;;;69.73;30.90;;;;;;;4.04;nan;99420.44;5113687;28;20173;-70
2021/12/05 04:47:49;;;;;;;65.30;31.73;;;;;;;4.13;nan;99419.16;5113682;28;20283;-69
2021/12/05 04:50:14;;;;;;;58.37;29.43;;;;;;;4.24;nan;99424.75;5114115;28;20262;-69
2021/12/05 04:52:40;;;;;;;59.97;30.50;;;;;;;3.97;nan;99434.88;5115253;28;20264;-69
2021/12/05 04:55:07;;;;;;;61.00;29.97;;;;;;;4.34;nan;99451.56;5113966;28;20177;-70
2021/12/05 04:57:32;;;;;;;62.37;30.10;;;;;;;3.48;nan;99431.06;5113988;28;20296;-68
2021/12/05 04:59:58;;;;;;;60.37;29.17;;;;;;;3.98;nan;99448.94;5113707;28;20229;-70
2021/12/05 05:02:23;;;;;;;59.20;30.10;;;;;;;4.00;nan;99433.88;5096803;28;20547;-70
2021/12/05 05:04:50;;;;;;;64.03;29.93;;;;;;;4.39;nan;99442.47;5118402;28;20174;-70
2021/12/05 05:07:24;;;;;;;53.60;27.73;;;;;;;4.10;nan;99452.78;5096985;28;20189;-70
2021/12/05 05:09:53;;;;;;;57.00;28.53;;;;;;;4.44;nan;99465.16;5113814;28;20245;-70
2021/12/05 05:12:19;;;;;;;48.00;25.43;;;;;;;4.06;nan;99455.53;5115019;28;20169;-70
2021/12/05 05:14:45;;;;;;;54.50;27.60;;;;;;;4.16;nan;99469.19;5114826;28;20550;-70
2021/12/05 05:17:10;;;;;;;62.27;28.43;;;;;;;4.26;nan;99472.22;5113807;28;20547;-70
2021/12/05 05:19:40;;;;;;;51.70;27.13;;;;;;;4.22;nan;99468.03;5113794;28;20193;-71
2021/12/05 05:43:39;;;;;;;51.30;26.10;;;;;;;4.32;nan;99524.75;5113241;28;20209;-70
2021/12/05 05:46:17;;;;;;;50.30;24.87;;;;;;;4.27;nan;99510.91;5113380;28;20180;-71
2021/12/05 05:51:22;;;;;;;51.23;26.13;;;;;;;3.66;nan;99534.88;5113372;28;20284;-71
2021/12/05 05:53:48;;;;;;;46.27;23.10;;;;;;;4.24;nan;99517.19;5112944;28;20256;-71
2021/12/05 05:56:18;;;;;;;49.33;24.03;;;;;;;3.82;nan;99525.34;5096071;28;20201;-71
2021/12/05 06:04:04;;;;;;;45.27;24.57;;;;;;;3.43;nan;99520.09;5115036;28;20592;-70
2021/12/05 06:06:31;;;;;;;44.20;22.67;;;;;;;3.98;nan;99551.88;5116928;28;20228;-70
2021/12/05 06:08:57;;;;;;;47.37;23.73;;;;;;;4.10;nan;99537.28;5115633;28;20547;-70
2021/12/05 06:11:22;;;;;;;42.83;22.97;;;;;;;4.17;nan;99551.91;5114646;28;20242;-69
2021/12/05 06:13:47;;;;;;;40.40;22.10;;;;;;;4.52;nan;99539.66;5112893;28;20188;-69
2021/12/05 06:16:15;;;;;;;43.70;24.23;;;;;;;4.30;nan;99539.81;5113865;28;20170;-69
2021/12/05 06:18:40;;;;;;;39.90;23.27;;;;;;;4.31;nan;99531.81;5113153;28;20174;-69
2021/12/05 06:21:07;;;;;;;46.50;23.90;;;;;;;4.20;nan;99536.78;5114066;28;20196;-70
2021/12/05 06:23:33;;;;;;;39.73;23.10;;;;;;;4.03;nan;99545.47;5116042;28;20172;-69
2021/12/05 06:25:58;;;;;;;40.57;22.57;;;;;;;3.78;nan;99539.63;5114936;27;20681;-69
2021/12/05 06:28:33;;;;;;;45.53;23.90;;;;;;;4.01;nan;99554.38;5114454;28;20193;-70
2021/12/05 06:31:08;;;;;;;42.27;23.40;;;;;;;4.21;nan;99561.41;5116027;28;20206;-70
2021/12/05 06:39:21;;;;;;;50.70;24.30;;;;;;;4.06;nan;99563.81;5115327;28;20188;-70
2021/12/05 06:42:20;;;;;;;48.50;24.07;;;;;;;4.26;nan;99562.03;5114159;28;20194;-69
2021/12/05 06:47:29;;;;;;;42.43;22.57;;;;;;;3.96;nan;99559.03;5116112;28;20192;-70
2021/12/05 06:49:55;;;;;;;44.80;23.67;;;;;;;4.28;nan;99555.75;5114086;28;20173;-69
2021/12/05 06:52:20;;;;;;;44.27;23.50;;;;;;;3.70;nan;99523.25;5112175;28;20184;-69
2021/12/05 06:54:46;;;;;;;40.13;22.07;;;;;;;3.73;nan;99547.75;5112152;28;20220;-69
2021/12/05 06:57:11;;;;;;;44.13;24.23;;;;;;;3.68;nan;99555.00;5112302;28;20173;-69
2021/12/05 06:59:39;;;;;;;41.37;23.00;;;;;;;4.25;nan;99592.00;5111876;28;20219;-70
2021/12/05 07:02:05;;;;;;;45.07;24.73;;;;;;;3.95;nan;99574.00;5133935;28;20181;-69
2021/12/05 07:07:28;;;;;;;41.13;21.77;;;;;;;3.48;nan;99549.75;5135680;28;20200;-69
2021/12/05 07:09:53;;;;;;;41.33;22.87;;;;;;;4.29;nan;99604.16;5137360;27;20172;-70
2021/12/05 07:15:25;;;;;;;50.83;23.23;;;;;;;4.27;nan;99595.44;5140022;27;20160;-69
2021/12/05 07:20:49;;;;;;;45.50;22.17;;;;;;;4.20;nan;99583.44;5137815;27;20222;-69
2021/12/05 07:26:10;;;;;;;43.43;22.73;;;;;;;4.46;nan;99598.06;5137679;27;20538;-69
2021/12/05 07:42:30;;;;;;;46.30;23.30;;;;;;;3.63;nan;99580.72;5138151;27;20192;-70
2021/12/05 07:44:59;;;;;;;50.47;25.50;;;;;;;3.97;nan;99602.97;5119975;27;20207;-69
2021/12/05 07:47:29;;;;;;;49.27;24.60;;;;;;;4.25;nan;99605.22;5138643;27;20761;-70
2021/12/05 07:49:56;;;;;;;53.40;25.33;;;;;;;3.80;nan;99627.50;5138286;27;20240;-69
2021/12/05 07:52:25;;;;;;;56.50;25.17;;;;;;;4.37;nan;99637.19;5118495;27;20168;-70
2021/12/05 07:54:57;;;;;;;55.00;25.53;;;;;;;3.98;nan;99617.88;5137663;27;20610;-69
2021/12/05 07:57:29;;;;;;;50.73;24.07;;;;;;;4.36;nan;99614.34;5138525;27;20560;-69
2021/12/05 08:00:12;;;;;;;46.83;23.60;;;;;;;4.20;nan;99617.78;5138276;27;20192;-69
2021/12/05 08:16:25;;;;;;;51.43;22.77;;;;;;;4.50;nan;99666.56;5137329;27;20167;-70
2021/12/05 08:18:50;;;;;;;45.73;22.30;;;;;;;4.34;nan;99654.97;5137644;27;20166;-69
2021/12/05 08:21:15;;;;;;;45.97;22.13;;;;;;;4.30;nan;99651.63;5120096;27;20196;-69
2021/12/05 08:23:40;;;;;;;48.50;24.53;;;;;;;4.59;nan;99660.84;5119594;27;20180;-69
2021/12/05 08:26:15;;;;;;;48.93;21.73;;;;;;;4.49;nan;99671.91;5137578;27;20223;-70
2021/12/05 08:34:32;;;;;;;42.60;20.63;;;;;;;4.86;nan;99685.13;5137282;27;20280;-70
2021/12/05 08:42:41;;;;;;;50.57;22.57;;;;;;;4.44;nan;99676.53;5121243;27;20167;-70
2021/12/05 08:45:44;;;;;;;48.53;20.93;;;;;;;4.69;nan;99696.47;5136861;27;20164;-70
2021/12/05 09:21:32;;;;;;;38.07;18.87;;;;;;;4.90;nan;99734.28;5137841;27;20195;-69
2021/12/05 09:26:55;;;;;;;37.87;18.57;;;;;;;5.23;nan;99760.91;5136567;27;20157;-71
2021/12/05 09:29:47;;;;;;;35.23;17.97;;;;;;;5.08;nan;99750.19;5119637;27;20170;-71
2021/12/05 09:51:34;;;;;;;34.07;19.03;;;;;;;5.56;nan;99758.41;5136078;27;20195;-72
2021/12/05 10:02:11;;;;;;;33.53;18.43;;;;;;;5.64;nan;99768.63;5135739;27;20272;-71
2021/12/05 10:07:43;;;;;;;34.63;19.50;;;;;;;4.85;nan;99773.31;5105796;27;20673;-70
2021/12/05 10:10:22;;;;;;;33.47;20.07;;;;;;;5.36;nan;99777.06;5120934;27;20193;-70
2021/12/05 10:15:47;;;;;;;32.63;18.10;;;;;;;5.57;nan;99791.88;5135459;27;20264;-71
2021/12/05 10:37:36;;;;;;;33.13;18.50;;;;;;;5.56;nan;99754.91;5136205;28;20156;-70
2021/12/05 10:40:13;;;;;;;38.30;19.40;;;;;;;5.90;nan;99775.28;5134742;28;20222;-70
2021/12/05 10:42:47;;;;;;;35.33;21.03;;;;;;;5.79;nan;99773.16;5134898;28;20156;-70
2021/12/05 10:45:30;;;;;;;38.37;20.70;;;;;;;5.77;nan;99782.97;5138105;27;20158;-69
2021/12/05 10:47:57;;;;;;;38.77;21.17;;;;;;;5.37;nan;99785.84;5141295;27;20208;-70
2021/12/05 10:50:42;;;;;;;36.50;21.63;;;;;;;5.61;nan;99804.06;5107195;27;20265;-69
2021/12/05 10:53:28;;;;;;;36.23;20.97;;;;;;;5.36;nan;99760.31;5120058;27;20171;-70
2021/12/05 10:56:02;;;;;;;39.87;23.10;;;;;;;4.94;nan;99783.44;5138665;27;20207;-70
2021/12/05 10:58:33;;;;;;;40.43;22.73;;;;;;;5.27;nan;99780.16;5138390;27;20167;-70
2021/12/05 11:01:11;;;;;;;39.30;22.00;;;;;;;5.52;nan;99788.59;5139740;27;20268;-69
2021/12/05 11:03:37;;;;;;;47.93;23.13;;;;;;;5.67;nan;99789.66;5103099;27;20197;-71
2021/12/05 11:06:35;;;;;;;42.60;22.47;;;;;;;5.10;nan;99772.13;5121161;27;20170;-71
2021/12/05 11:09:08;;;;;;;40.40;22.37;;;;;;;5.32;nan;99797.50;5139250;27;20252;-69
2021/12/05 11:11:35;;;;;;;39.23;22.60;;;;;;;5.79;nan;99831.41;5139833;27;20212;-73
2021/12/05 11:14:03;;;;;;;37.00;21.00;;;;;;;4.99;nan;99801.75;5119932;27;20173;-69
2021/12/05 11:16:37;;;;;;;39.90;21.83;;;;;;;5.61;nan;99821.72;5137593;27;20566;-69
2021/12/05 11:19:09;;;;;;;37.30;21.07;;;;;;;5.44;nan;99809.28;5119211;27;20172;-69
2021/12/05 11:21:35;;;;;;;45.90;23.73;;;;;;;5.27;nan;99812.75;5118987;27;20226;-68
2021/12/05 11:24:16;;;;;;;51.50;25.83;;;;;;;5.45;nan;99821.59;5137601;27;20259;-70
2021/12/05 11:26:43;;;;;;;45.20;24.27;;;;;;;5.26;nan;99824.28;5119310;27;20683;-69
2021/12/05 11:29:09;;;;;;;43.53;24.13;;;;;;;4.79;nan;99812.34;5118907;27;20259;-70
2021/12/05 11:31:35;;;;;;;43.63;23.60;;;;;;;5.10;nan;99798.59;5137169;27;20216;-69
2021/12/05 11:34:00;;;;;;;49.87;23.60;;;;;;;5.10;nan;99807.38;5119320;27;20177;-69
2021/12/05 11:36:29;;;;;;;42.67;24.33;;;;;;;5.58;nan;99833.31;5137291;27;20657;-69
2021/12/05 11:38:54;;;;;;;40.17;23.23;;;;;;;5.07;nan;99815.47;5119144;27;20178;-69
2021/12/05 11:41:21;;;;;;;54.27;25.80;;;;;;;5.37;nan;99849.34;5137439;27;20288;-70
2021/12/05 11:43:47;;;;;;;50.73;26.17;;;;;;;5.48;nan;99836.47;5118886;27;20178;-70
2021/12/05 11:46:19;;;;;;;49.83;24.30;;;;;;;5.69;nan;99846.03;5118697;27;20183;-69
2021/12/05 11:48:54;;;;;;;46.50;25.07;;;;;;;4.82;nan;99821.00;5101485;27;20212;-70
2021/12/05 11:51:41;;;;;;;44.83;24.10;;;;;;;5.78;nan;99848.22;5137131;27;20621;-70
2021/12/05 11:54:12;;;;;;;45.63;24.50;;;;;;;5.71;nan;99849.47;5137619;27;20543;-70
2021/12/05 11:56:49;;;;;;;44.73;23.77;;;;;;;5.57;nan;99836.00;5136785;27;20188;-69
2021/12/05 11:59:27;;;;;;;44.50;25.63;;;;;;;4.80;nan;99816.72;5118522;27;20677;-69
2021/12/05 12:02:00;;;;;;;45.97;25.00;;;;;;;5.46;nan;99855.06;5161538;22;20225;-69
2021/12/05 12:04:56;;;;;;;51.87;26.03;;;;;;;5.62;nan;99855.22;5136880;27;20162;-68
2021/12/05 12:07:26;;;;;;;40.53;23.43;;;;;;;5.08;nan;99813.66;5136699;27;20193;-68
2021/12/05 12:09:58;;;;;;;45.70;24.47;;;;;;;5.53;nan;99840.59;5137327;27;20184;-69
2021/12/05 12:12:23;;;;;;;46.07;24.20;;;;;;;5.69;nan;99851.31;5115215;28;20158;-68
2021/12/05 12:14:49;;;;;;;48.53;24.37;;;;;;;5.05;nan;99846.41;5115136;28;20702;-69
2021/12/05 12:17:16;;;;;;;48.63;26.17;;;;;;;5.22;nan;99845.66;5116726;28;20654;-70
2021/12/05 12:19:47;;;;;;;43.73;24.83;;;;;;;5.43;nan;99865.78;5117212;28;20169;-69
2021/12/05 12:22:13;;;;;;;50.90;26.47;;;;;;;4.62;nan;99835.13;5115687;28;20189;-69
2021/12/05 12:24:40;;;;;;;45.87;26.63;;;;;;;5.37;nan;99863.44;5115050;28;20177;-69
2021/12/05 12:27:06;;;;;;;51.97;25.70;;;;;;;4.98;nan;99831.75;5115121;28;20190;-69
2021/12/05 12:29:31;;;;;;;46.30;24.57;;;;;;;4.31;nan;99826.81;5116034;28;20246;-69
2021/12/05 12:32:07;;;;;;;55.70;26.90;;;;;;;4.59;nan;99851.13;5115936;28;20189;-69
2021/12/05 12:34:33;;;;;;;57.43;26.77;;;;;;;4.62;nan;99874.78;5115269;28;20153;-69
2021/12/05 12:37:01;;;;;;;51.17;28.37;;;;;;;4.35;nan;99883.88;5116562;28;20174;-70
2021/12/05 12:39:37;;;;;;;55.07;26.97;;;;;;;4.78;nan;99866.16;5114589;28;20181;-70
2021/12/05 12:42:13;;;;;;;49.83;25.97;;;;;;;4.88;nan;99878.06;5115075;28;20199;-69
2021/12/05 12:45:06;;;;;;;53.20;27.33;;;;;;;4.58;nan;99854.69;5115918;28;20733;-68
2021/12/05 12:47:41;;;;;;;59.73;28.57;;;;;;;4.70;nan;99877.94;5116565;28;20208;-69
2021/12/05 12:50:19;;;;;;;56.53;28.77;;;;;;;4.71;nan;99874.38;5115003;28;20659;-69
2021/12/05 12:52:56;;;;;;;49.30;27.17;;;;;;;4.64;nan;99880.84;5115742;28;20535;-69
2021/12/05 12:55:27;;;;;;;56.57;28.17;;;;;;;4.83;nan;99893.25;5114759;28;20619;-69
2021/12/05 12:57:52;;;;;;;55.70;28.43;;;;;;;4.56;nan;99850.41;5116254;28;20146;-69
2021/12/05 13:00:20;;;;;;;57.10;27.47;;;;;;;4.17;nan;99858.25;5114089;28;20263;-69
2021/12/05 13:10:52;;;;;;;56.80;29.60;;;;;;;4.48;nan;99898.31;5115130;28;20204;-68
2021/12/05 13:13:20;;;;;;;60.53;29.70;;;;;;;4.71;nan;99892.88;5114333;28;20607;-69
2021/12/05 13:15:53;;;;;;;53.90;28.37;;;;;;;4.88;nan;99899.22;5100992;28;20547;-69
2021/12/05 13:18:25;;;;;;;52.43;27.90;;;;;;;4.78;nan;99900.53;5120631;28;20185;-69
2021/12/05 13:20:56;;;;;;;58.43;29.77;;;;;;;4.83;nan;99885.31;5119065;28;20186;-69
2021/12/05 13:23:33;;;;;;;59.03;29.17;;;;;;;4.37;nan;99884.66;5115460;28;20552;-69
2021/12/05 13:26:14;;;;;;;56.90;29.00;;;;;;;4.77;nan;99896.16;5098909;28;20169;-71
2021/12/05 13:28:54;;;;;;;56.80;28.57;;;;;;;4.40;nan;99880.13;5115388;28;20268;-68
2021/12/05 13:31:28;;;;;;;53.70;28.90;;;;;;;4.86;nan;99899.28;5117059;28;20279;-69
2021/12/05 13:34:19;;;;;;;51.67;28.80;;;;;;;4.67;nan;99886.00;5118386;28;20603;-69
2021/12/05 13:36:49;;;;;;;60.60;28.97;;;;;;;4.59;nan;99877.56;5116814;28;20248;-69
2021/12/05 13:39:41;;;;;;;56.07;30.20;;;;;;;4.76;nan;99894.44;5117735;28;20169;-69
2021/12/05 13:42:19;;;;;;;52.63;29.40;;;;;;;4.36;nan;99918.16;5116566;28;20203;-70
2021/12/05 13:45:00;;;;;;;53.80;29.17;;;;;;;4.70;nan;99912.28;5121206;28;20181;-68
2021/12/05 13:47:29;;;;;;;56.57;29.30;;;;;;;4.95;nan;99927.09;5122148;28;20190;-69
2021/12/05 13:50:18;;;;;;;56.50;28.70;;;;;;;4.52;nan;99910.47;5116106;28;20169;-69
2021/12/05 13:53:02;;;;;;;51.97;27.43;;;;;;;4.58;nan;99933.13;5117248;28;20297;-70
2021/12/05 13:55:49;;;;;;;56.60;29.07;;;;;;;4.61;nan;99928.56;5115780;28;20158;-69
2021/12/05 13:58:38;;;;;;;64.00;30.30;;;;;;;4.69;nan;99950.22;5114822;28;20150;-70
2021/12/05 14:01:06;;;;;;;54.80;29.73;;;;;;;4.66;nan;99950.38;5114271;28;20559;-69
2021/12/05 14:04:00;;;;;;;64.13;30.17;;;;;;;4.86;nan;99933.66;5115361;28;20188;-70
2021/12/05 14:06:31;;;;;;;61.57;30.90;;;;;;;4.35;nan;99965.78;5122062;28;20158;-69
2021/12/05 14:09:15;;;;;;;64.60;32.93;;;;;;;4.99;nan;99974.50;5114662;28;20614;-69
2021/12/05 14:11:50;;;;;;;66.67;32.00;;;;;;;4.88;nan;99967.97;5114217;28;20253;-69
2021/12/05 14:14:17;;;;;;;64.80;32.23;;;;;;;4.66;nan;99957.44;5112669;28;20153;-68
2021/12/05 14:16:44;;;;;;;60.03;31.17;;;;;;;4.60;nan;99963.84;5112760;28;20181;-70
2021/12/05 14:19:14;;;;;;;65.70;29.63;;;;;;;4.69;nan;99984.59;5112661;28;20220;-69
2021/12/05 14:21:42;;;;;;;67.87;31.97;;;;;;;5.05;nan;99981.28;5095850;28;20240;-68
2021/12/05 14:24:08;;;;;;;67.00;31.60;;;;;;;4.91;nan;99968.69;5113501;28;20177;-69
2021/12/05 14:26:39;;;;;;;61.97;30.47;;;;;;;4.88;nan;99974.13;5112542;28;20174;-69
2021/12/05 14:29:09;;;;;;;58.40;30.07;;;;;;;4.93;nan;99974.75;5112494;28;20620;-69
2021/12/05 14:31:37;;;;;;;66.57;31.63;;;;;;;4.52;nan;99971.25;5095494;28;20197;-68
2021/12/05 14:34:04;;;;;;;61.83;29.77;;;;;;;4.57;nan;99973.69;5112266;28;20169;-68
2021/12/05 14:36:33;;;;;;;61.73;30.67;;;;;;;4.99;nan;99986.84;5113724;28;20188;-68
2021/12/05 14:39:14;;;;;;;59.47;31.20;;;;;;;4.95;nan;99977.34;5112477;28;20234;-68
2021/12/05 14:41:40;;;;;;;58.43;29.50;;;;;;;5.04;nan;99990.16;5113844;28;20548;-69
2021/12/05 14:44:06;;;;;;;62.87;31.30;;;;;;;4.75;nan;99998.47;5112232;28;20172;-68
2021/12/05 14:46:32;;;;;;;55.23;30.37;;;;;;;4.20;nan;100003.41;5112277;28;20173;-69
2021/12/05 14:49:01;;;;;;;70.83;32.87;;;;;;;4.76;nan;100005.47;5095160;28;20173;-68
2021/12/05 14:51:35;;;;;;;67.40;32.23;;;;;;;4.50;nan;100017.16;5113334;28;20689;-68
2021/12/05 14:54:02;;;;;;;56.57;30.93;;;;;;;4.57;nan;100023.91;5112881;28;20608;-68
2021/12/05 14:56:32;;;;;;;58.33;31.37;;;;;;;4.87;nan;100016.47;5113379;28;20280;-68
2021/12/05 14:59:04;;;;;;;60.53;30.23;;;;;;;4.78;nan;100030.94;5095375;28;20244;-68
2021/12/05 15:01:30;;;;;;;66.30;30.70;;;;;;;4.77;nan;100021.28;5111996;28;20216;-68
2021/12/05 15:03:55;;;;;;;58.57;31.37;;;;;;;4.49;nan;100028.66;5095131;28;20178;-68
2021/12/05 15:06:20;;;;;;;63.27;30.53;;;;;;;3.82;nan;100026.88;5112252;28;20592;-69
2021/12/05 15:08:46;;;;;;;57.40;31.10;;;;;;;4.65;nan;100043.81;5111856;28;20189;-68
2021/12/05 15:11:11;;;;;;;65.70;31.90;;;;;;;4.08;nan;100031.13;5113726;28;20334;-69
2021/12/05 15:13:37;;;;;;;57.70;30.73;;;;;;;4.68;nan;100056.03;5113979;28;20177;-68
2021/12/05 15:16:04;;;;;;;55.20;31.63;;;;;;;4.66;nan;100061.38;5114207;28;20170;-69
2021/12/05 15:18:32;;;;;;;62.13;32.40;;;;;;;4.70;nan;100060.34;5113408;28;20170;-68
2021/12/05 15:20:59;;;;;;;70.43;33.37;;;;;;;4.61;nan;100078.34;5115232;28;20194;-68
2021/12/05 15:23:29;;;;;;;63.80;32.17;;;;;;;4.78;nan;100062.66;5112814;28;20653;-69
2021/12/05 15:25:59;;;;;;;67.80;33.20;;;;;;;4.83;nan;100071.28;5113161;28;20177;-69
2021/12/05 15:28:24;;;;;;;69.07;32.80;;;;;;;4.75;nan;100061.91;5114648;28;20193;-68
2021/12/05 15:30:49;;;;;;;67.80;32.13;;;;;;;4.77;nan;100074.16;5115239;28;20193;-69
2021/12/05 15:33:17;;;;;;;69.50;33.53;;;;;;;4.34;nan;100080.31;5116980;28;20692;-68
2021/12/05 15:35:44;;;;;;;65.07;32.83;;;;;;;4.57;nan;100084.69;5119036;28;20165;-69
2021/12/05 15:38:11;;;;;;;66.83;33.33;;;;;;;4.62;nan;100082.72;5117956;28;20173;-69
2021/12/05 15:40:42;;;;;;;71.97;33.80;;;;;;;4.63;nan;100100.28;5119098;28;20422;-68
2021/12/05 15:43:12;;;;;;;71.13;33.87;;;;;;;4.56;nan;100093.53;5118796;28;20682;-68
2021/12/05 15:45:40;;;;;;;69.27;34.23;;;;;;;4.52;nan;100099.88;5119007;27;20620;-68
2021/12/05 15:48:05;;;;;;;73.53;35.13;;;;;;;3.93;nan;100114.44;5117515;28;20196;-69
2021/12/05 15:50:33;;;;;;;82.03;36.60;;;;;;;4.53;nan;100105.09;5118281;28;20200;-68
2021/12/05 15:53:01;;;;;;;81.70;36.63;;;;;;;4.70;nan;100112.34;5117326;28;20623;-69
2021/12/05 15:55:32;;;;;;;80.40;38.20;;;;;;;4.56;nan;100097.03;5117871;28;20579;-67
2021/12/05 15:58:11;;;;;;;85.10;37.13;;;;;;;4.53;nan;100085.75;5116214;28;20169;-69
2021/12/05 16:00:41;;;;;;;78.80;37.00;;;;;;;4.37;nan;100114.53;5115168;28;20286;-69
2021/12/05 16:03:12;;;;;;;84.47;37.37;;;;;;;4.43;nan;100101.06;5116698;28;20170;-69
2021/12/05 16:05:40;;;;;;;85.17;37.83;;;;;;;4.77;nan;100129.66;5116594;28;20166;-69
2021/12/05 16:08:09;;;;;;;84.70;38.97;;;;;;;4.97;nan;100126.22;5115507;28;20234;-69
2021/12/05 16:10:36;;;;;;;78.20;37.00;;;;;;;4.63;nan;100140.81;5116862;28;20200;-70
2021/12/05 16:13:09;;;;;;;77.87;35.00;;;;;;;4.81;nan;100136.56;5115038;28;20180;-67
2021/12/05 16:15:35;;;;;;;87.57;35.90;;;;;;;4.75;nan;100120.09;5114778;28;20158;-68
2021/12/05 16:18:01;;;;;;;71.87;36.93;;;;;;;4.53;nan;100144.75;5116388;28;20221;-68
2021/12/05 16:20:40;;;;;;;66.23;34.30;;;;;;;4.82;nan;100140.06;5116329;28;20566;-69
2021/12/05 16:23:14;;;;;;;67.23;32.13;;;;;;;4.64;nan;100155.75;5115114;28;20149;-67
2021/12/05 16:25:44;;;;;;;61.33;32.53;;;;;;;4.85;nan;100158.47;5116041;27;20519;-67
2021/12/05 16:28:12;;;;;;;64.73;33.17;;;;;;;4.61;nan;100150.56;5116133;28;20200;-69
2021/12/05 16:30:41;;;;;;;56.87;31.37;;;;;;;4.36;nan;100160.38;5114550;28;20321;-69
2021/12/05 16:33:07;;;;;;;66.83;31.40;;;;;;;4.55;nan;100171.97;5115110;28;20172;-68
2021/12/05 16:35:36;;;;;;;67.23;32.77;;;;;;;4.65;nan;100156.59;5115105;28;20169;-69